x

Cape Elizabeth- 45nm Nw Of Aberdeen, Wa (46041) Wave Buoy

3:50pm - Sun 24th May 2015 All times are PDT. -7 hours from GMT.

  • Sig Wave height 4.9ft
  • Swell Direction
  • Peak Period 8s
  • Average Period 6s
  • Wind
    7mph, 9mph gusts
  • Sea Temp 55°f
  • 空気 Temp 52°f
  • Sea Pressure 1019.6mb
  • Cape Elizabeth- 45nm Nw Of Aberdeen, Wa
  • Cape Elizabeth- 45nm Nw Of Aberdeen, Wa

More Historic Weather Station data

Upgrade to MSW Pro to gain access to the past 30 days of data for over 8000 Wavebouys and Weather Stations around the globe.

Join Pro

Comparision Forecast

View Surf forecast
   
Sun 05/24 3:50pm 5ft 8s 6s 7 9 mph 1019.6mb 55f 52f
2:50pm 4.5ft 8s 6s 7
mph
1020mb 55f 52f
1:50pm 5ft 8s 6s 7 9 mph 1020.7mb 55f 51f
12:50pm 4.5ft 8s 6s 11 13 mph 1021mb 55f 51f
11:50am 5ft 8s 6s 11 13 mph 1021.3mb 54f 50f
10:50am 5ft 11s 6s 9 11 mph 1021.5mb 54f 52f
9:50am 5ft 11s 6s 13 16 mph 1021.8mb 54f 51f
8:50am 4.5ft 7s 6s 11 13 mph 1021.8mb 54f 52f
7:50am 4.5ft 11s 6s 11 16 mph 1021.8mb 54f 51f
6:50am 4.5ft 11s 6s 9 13 mph 1021.9mb 54f 51f
5:50am 4.5ft 11s 6s 13 18 mph 1021.9mb 54f 52f
4:50am 4.5ft 11s 6s 11 13 mph 1021.8mb 54f 51f
3:50am 5ft 12s 6s 16 18 mph 1021.8mb 54f 51f
2:50am 4.5ft 11s 6s 13 18 mph 1022mb 54f 51f
1:50am 4.5ft 8s 6s 13 16 mph 1022.8mb 54f 51f
12:50am 4.5ft 10s 6s 13 16 mph 1023.1mb 54f 52f
Sat 05/23 11:50pm 4.5ft 11s 6s 11 13 mph 1023mb 54f 52f
10:50pm 4.5ft 12s 6s 11 13 mph 1022.9mb 54f 52f
9:50pm 4.5ft 12s 6s 7 11 mph 1023mb 54f 52f
8:50pm 4.5ft 12s 6s 11
mph
1022.6mb 54f 51f
7:50pm 4.5ft 12s 6s 11 13 mph 1022.2mb 55f 52f
6:50pm 4.5ft 13s 7s 13 16 mph 1022.4mb 55f 52f
5:50pm 4.5ft 8s 6s 11 13 mph 1022.5mb 55f 53f
4:50pm 4.5ft 13s 6s 9 11 mph 1022.9mb 55f 52f
3:50pm 5ft 13s 6s 7 11 mph 1023.2mb 55f 53f
2:50pm 5ft 9s 6s 11 13 mph 1023.3mb 54f 52f
1:50pm 4.5ft 13s 6s 9
mph
1023.4mb 54f 53f
12:50pm 5ft 8s 6s 9
mph
1023.2mb 54f 51f
11:50am 5ft 13s 6s 11
mph
1022.8mb 53f 52f
10:50am 5ft 8s 6s 9 13 mph 1022.4mb 53f 51f
9:50am 5.5ft 8s 6s 9 11 mph 1022.3mb 53f 51f
8:50am 5ft 8s 6s 9 11 mph 1021.9mb 53f 52f
7:50am 4.5ft 8s 6s 11 16 mph 1021.4mb 53f 51f
6:50am 5ft 7s 6s 11 13 mph 1020.7mb 54f 52f
5:50am 5ft 9s 6s 13 16 mph 1020.1mb 54f 52f
4:50am 5ft 8s 6s 11 13 mph 1020mb 53f 52f
3:50am 5ft 8s 6s 13 16 mph 1020mb 53f 52f
2:50am 5.5ft 9s 6s 13 16 mph 1019.8mb 53f 52f
1:50am 4.5ft 8s 6s 13 16 mph 1019.4mb 53f 52f
12:50am 5ft 9s 6s 9 11 mph 1019.1mb 53f 52f
Fri 05/22 11:50pm 5ft 8s 6s 9 11 mph 1019.1mb 53f 52f
10:50pm 5ft 8s 6s 7
mph
1018.9mb 53f 52f
9:50pm 5ft 8s 6s 9 11 mph 1018.5mb 53f 53f
8:50pm 5.5ft 8s 6s 4 7 mph 1018mb 53f 53f
7:50pm 5.5ft 8s 7s 7
mph
1017.6mb 53f 53f
6:50pm 5.5ft 8s 7s 4 7 mph 1017.4mb 53f 53f
5:50pm 5ft 8s 7s 9 11 mph 1017.1mb 53f 53f
4:50pm 5ft 8s 6s 7 9 mph 1017mb 53f 53f
3:50pm 5ft 8s 6s 7 9 mph 1017.1mb 53f 53f
2:50pm 5.5ft 8s 6s 7
mph
1017mb 53f 53f
1:50pm 5ft 8s 6s 9
mph
1017.2mb 53f 53f
12:50pm 5ft 8s 6s 9 11 mph 1017.1mb 54f 53f
11:50am 6ft 9s 7s 4 7 mph 1017mb 53f 52f
10:50am 6ft 8s 6s 9 11 mph 1016.6mb 53f 52f
9:50am 6.5ft 8s 7s 7 9 mph 1016.3mb 53f 52f
8:50am 6ft 8s 7s 9 11 mph 1015.8mb 53f 52f
7:50am 6ft 8s 6s 11 13 mph 1015.1mb 53f 52f
6:50am 6ft 8s 7s 13 16 mph 1014.9mb 54f 52f
5:50am 6.5ft 8s 7s 13 16 mph 1014.8mb 54f 52f
4:50am 6.5ft 8s 7s 13 16 mph 1014.4mb 54f 52f
3:50am 6ft 8s 7s 11 20 mph 1014.6mb 54f 52f
2:50am 6ft 8s 7s 11 13 mph 1014.4mb 54f 52f
1:50am 5ft 8s 6s 7 11 mph 1014.4mb 54f 52f
12:50am 5ft 8s 6s 9 13 mph 1014.3mb 53f 52f
Thu 05/21 11:50pm 5ft 8s 6s 11 13 mph 1014mb 53f 52f
10:50pm 5ft 8s 6s 11 13 mph 1014mb 53f 52f
9:50pm 5.5ft 8s 6s 11 16 mph 1013.5mb 54f 52f
8:50pm 5ft 10s 6s 11 18 mph 1012.9mb 54f 52f
7:50pm 5.5ft 11s 7s 16 18 mph 1012.6mb 54f 52f
6:50pm 5ft 10s 6s 13 16 mph 1012.3mb 54f 53f
5:50pm 5ft 11s 7s 11 13 mph 1012.7mb 53f 53f
4:50pm 5ft 11s 7s 9 11 mph 1012.7mb 53f 53f
3:50pm 5.5ft 8s 7s 11 13 mph 1012.7mb 53f 53f
2:50pm 5ft 8s 7s 11 13 mph 1013mb 54f 53f
1:50pm 5ft 10s 7s 9
mph
1013.3mb 54f 53f
12:50pm 5.5ft 8s 7s 7 9 mph 1013.4mb 54f 52f
11:50am 5ft 12s 7s 9 11 mph 1013.4mb 53f 52f
10:50am 5.5ft 11s 7s 7 9 mph 1013.4mb 53f 52f
9:50am 5.5ft 12s 6s 9 11 mph 1013.4mb 53f 51f
8:50am 5ft 7s 6s 9 13 mph 1013.1mb 53f 51f
7:50am 6ft 7s 6s 9 11 mph 1012.9mb 53f 51f
6:50am 5.5ft 12s 6s 11 13 mph 1012.7mb 53f 51f
5:50am 5ft 12s 6s 13 16 mph 1012.4mb 53f 51f
4:50am 5ft 7s 6s 13 16 mph 1012.6mb 53f 51f
3:50am 5.5ft 7s 6s 13 16 mph 1012.7mb 53f 51f
2:50am 5ft 12s 6s 13 16 mph 1012.8mb 53f 51f
1:50am 5ft 7s 6s 11 16 mph 1012.9mb 53f 51f
12:50am 5ft 7s 6s 13 16 mph 1013.1mb 53f 51f
Wed 05/20 11:50pm 5ft 12s 5s 16 18 mph 1013.1mb 53f 51f